Con. actuales
Clear
Conditions



PressiĆ³n:
1012.92 (hPa) - 29.91 (inHG)
Visibilidad:

8.0 (km) - 5.0 (miles)
Base de Nubes

Despejado (Mts) - Despejado (Feets)
   Temperatura
15  °C
Temperatura
15  °C
100  %
 Humedad
   Velocidad del Viento
14  km/h
8  kts
9  mph
4.0  m/s
   Wind Direction
N
45°
E
90°
135°
S
180°
225°
O
270°
315°
 70°

Este Nor
Este
   Airport Data
SAEZ
Minister Pistarini International Airport
Metar :SAEZ 040000Z 07008KT 8000 NSC 15/15 Q1013 NOSIG RMK PP000
Sat 3rd June 21:00 pm
   Raw Metar Info
Raw METAR is the most common format in the world for the transmission of observational weather data. It is highly standardized through the International Civil Aviation Organization (ICAO), which allows it to be understood throughout most of the world.
   API Info
Data Provided by
https://www.checkwx.com/weather/SAEZ

Aviation Weather providing METAR, TAF, AIRMET, SIGMET and OUTLOOK Weather Reports
   © Info
CSS/SVG/PHP scripts were developed by weather34.com for use in the weather34 template © 2015-2023

Guide Info provided by Metar-Wikipedia